sensor_id;sensor_type;location;lat;lon;timestamp;temperature;humidity
41678;DHT22;27364;49.026;8.712;2023-05-10T00:02:10;13.30;99.90
41678;DHT22;27364;49.026;8.712;2023-05-10T00:04:37;13.20;99.90
41678;DHT22;27364;49.026;8.712;2023-05-10T00:07:03;13.20;99.90
41678;DHT22;27364;49.026;8.712;2023-05-10T00:09:28;13.20;99.90
41678;DHT22;27364;49.026;8.712;2023-05-10T00:11:54;13.20;99.90
41678;DHT22;27364;49.026;8.712;2023-05-10T00:14:19;13.10;99.90
41678;DHT22;27364;49.026;8.712;2023-05-10T00:16:48;13.10;99.90
41678;DHT22;27364;49.026;8.712;2023-05-10T00:19:13;13.00;99.90
41678;DHT22;27364;49.026;8.712;2023-05-10T00:21:39;13.00;99.90
41678;DHT22;27364;49.026;8.712;2023-05-10T00:24:05;13.00;99.90
41678;DHT22;27364;49.026;8.712;2023-05-10T00:26:31;13.00;99.90
41678;DHT22;27364;49.026;8.712;2023-05-10T00:28:57;13.00;99.90
41678;DHT22;27364;49.026;8.712;2023-05-10T00:31:23;13.00;99.90
41678;DHT22;27364;49.026;8.712;2023-05-10T00:33:49;13.00;99.90
41678;DHT22;27364;49.026;8.712;2023-05-10T00:36:14;12.90;99.90
41678;DHT22;27364;49.026;8.712;2023-05-10T00:38:40;12.90;99.90
41678;DHT22;27364;49.026;8.712;2023-05-10T00:41:05;12.90;99.90
41678;DHT22;27364;49.026;8.712;2023-05-10T00:43:31;12.90;99.90
41678;DHT22;27364;49.026;8.712;2023-05-10T00:45:57;12.90;99.90
41678;DHT22;27364;49.026;8.712;2023-05-10T00:48:23;12.80;99.90
41678;DHT22;27364;49.026;8.712;2023-05-10T00:50:52;12.80;99.90
41678;DHT22;27364;49.026;8.712;2023-05-10T00:53:17;12.80;99.90
41678;DHT22;27364;49.026;8.712;2023-05-10T00:55:43;12.80;99.90
41678;DHT22;27364;49.026;8.712;2023-05-10T00:58:09;12.80;99.90
41678;DHT22;27364;49.026;8.712;2023-05-10T01:00:35;12.80;99.90
41678;DHT22;27364;49.026;8.712;2023-05-10T01:03:03;12.80;99.90
41678;DHT22;27364;49.026;8.712;2023-05-10T01:05:29;12.80;99.90
41678;DHT22;27364;49.026;8.712;2023-05-10T01:07:56;12.80;99.90
41678;DHT22;27364;49.026;8.712;2023-05-10T01:10:21;12.80;99.90
41678;DHT22;27364;49.026;8.712;2023-05-10T01:12:47;12.80;99.90
41678;DHT22;27364;49.026;8.712;2023-05-10T01:15:14;12.80;99.90
41678;DHT22;27364;49.026;8.712;2023-05-10T01:17:42;12.80;99.90
41678;DHT22;27364;49.026;8.712;2023-05-10T01:20:09;12.80;99.90
41678;DHT22;27364;49.026;8.712;2023-05-10T01:22:50;12.80;99.90
41678;DHT22;27364;49.026;8.712;2023-05-10T01:28:16;12.90;99.90
41678;DHT22;27364;49.026;8.712;2023-05-10T01:33:54;12.80;99.90
41678;DHT22;27364;49.026;8.712;2023-05-10T01:36:51;12.90;99.90
41678;DHT22;27364;49.026;8.712;2023-05-10T01:39:25;12.80;99.90
41678;DHT22;27364;49.026;8.712;2023-05-10T01:42:07;12.90;99.90
41678;DHT22;27364;49.026;8.712;2023-05-10T01:47:15;12.80;99.90
41678;DHT22;27364;49.026;8.712;2023-05-10T01:49:54;12.80;99.90
41678;DHT22;27364;49.026;8.712;2023-05-10T01:52:25;12.80;99.90
41678;DHT22;27364;49.026;8.712;2023-05-10T01:55:16;12.80;99.90
41678;DHT22;27364;49.026;8.712;2023-05-10T01:57:44;12.80;99.90
41678;DHT22;27364;49.026;8.712;2023-05-10T02:00:12;12.80;99.90
41678;DHT22;27364;49.026;8.712;2023-05-10T02:02:40;12.80;99.90
41678;DHT22;27364;49.026;8.712;2023-05-10T02:05:08;12.70;99.90
41678;DHT22;27364;49.026;8.712;2023-05-10T02:07:35;12.70;99.90
41678;DHT22;27364;49.026;8.712;2023-05-10T02:10:06;12.70;99.90
41678;DHT22;27364;49.026;8.712;2023-05-10T02:12:36;12.70;99.90
41678;DHT22;27364;49.026;8.712;2023-05-10T02:15:04;12.80;99.90
41678;DHT22;27364;49.026;8.712;2023-05-10T02:17:32;12.80;99.90
41678;DHT22;27364;49.026;8.712;2023-05-10T02:19:59;12.80;99.90
41678;DHT22;27364;49.026;8.712;2023-05-10T02:22:26;12.80;99.90
41678;DHT22;27364;49.026;8.712;2023-05-10T02:24:54;12.80;99.90
41678;DHT22;27364;49.026;8.712;2023-05-10T02:27:22;12.80;99.90
41678;DHT22;27364;49.026;8.712;2023-05-10T02:29:49;12.80;99.90
41678;DHT22;27364;49.026;8.712;2023-05-10T02:32:16;12.90;99.90
41678;DHT22;27364;49.026;8.712;2023-05-10T02:34:43;12.80;99.90
41678;DHT22;27364;49.026;8.712;2023-05-10T02:37:13;12.80;99.90
41678;DHT22;27364;49.026;8.712;2023-05-10T02:39:39;12.80;99.90
41678;DHT22;27364;49.026;8.712;2023-05-10T02:42:11;12.90;99.90
41678;DHT22;27364;49.026;8.712;2023-05-10T02:44:41;12.90;99.90
41678;DHT22;27364;49.026;8.712;2023-05-10T02:47:07;12.90;99.90
41678;DHT22;27364;49.026;8.712;2023-05-10T02:49:34;12.90;99.90
41678;DHT22;27364;49.026;8.712;2023-05-10T02:52:05;12.90;99.90
41678;DHT22;27364;49.026;8.712;2023-05-10T02:54:38;12.90;99.90
41678;DHT22;27364;49.026;8.712;2023-05-10T02:57:06;13.00;99.90
41678;DHT22;27364;49.026;8.712;2023-05-10T02:59:32;12.90;99.90
41678;DHT22;27364;49.026;8.712;2023-05-10T03:01:59;12.90;99.90
41678;DHT22;27364;49.026;8.712;2023-05-10T03:04:26;12.90;99.90
41678;DHT22;27364;49.026;8.712;2023-05-10T03:06:52;12.90;99.90
41678;DHT22;27364;49.026;8.712;2023-05-10T03:09:18;12.90;99.90
41678;DHT22;27364;49.026;8.712;2023-05-10T03:12:57;13.00;99.90
41678;DHT22;27364;49.026;8.712;2023-05-10T03:15:11;12.90;99.90
41678;DHT22;27364;49.026;8.712;2023-05-10T03:18:06;13.00;99.90
41678;DHT22;27364;49.026;8.712;2023-05-10T03:20:38;13.00;99.90
41678;DHT22;27364;49.026;8.712;2023-05-10T03:25:44;13.00;99.90
41678;DHT22;27364;49.026;8.712;2023-05-10T03:28:12;13.00;99.90
41678;DHT22;27364;49.026;8.712;2023-05-10T03:30:41;13.00;99.90
41678;DHT22;27364;49.026;8.712;2023-05-10T03:33:08;12.90;99.90
41678;DHT22;27364;49.026;8.712;2023-05-10T03:35:33;12.90;99.90
41678;DHT22;27364;49.026;8.712;2023-05-10T03:37:59;12.80;99.90
41678;DHT22;27364;49.026;8.712;2023-05-10T03:40:26;12.90;99.90
41678;DHT22;27364;49.026;8.712;2023-05-10T03:42:54;12.90;99.90
41678;DHT22;27364;49.026;8.712;2023-05-10T03:45:22;12.90;99.90
41678;DHT22;27364;49.026;8.712;2023-05-10T03:47:47;12.80;99.90
41678;DHT22;27364;49.026;8.712;2023-05-10T03:50:13;12.80;99.90
41678;DHT22;27364;49.026;8.712;2023-05-10T03:52:38;12.90;99.90
41678;DHT22;27364;49.026;8.712;2023-05-10T03:55:07;12.90;99.90
41678;DHT22;27364;49.026;8.712;2023-05-10T03:57:33;12.90;99.90
41678;DHT22;27364;49.026;8.712;2023-05-10T03:59:58;12.90;99.90
41678;DHT22;27364;49.026;8.712;2023-05-10T04:02:24;12.90;99.90
41678;DHT22;27364;49.026;8.712;2023-05-10T04:04:50;12.90;99.90
41678;DHT22;27364;49.026;8.712;2023-05-10T04:07:15;12.90;99.90
41678;DHT22;27364;49.026;8.712;2023-05-10T04:09:43;12.90;99.90
41678;DHT22;27364;49.026;8.712;2023-05-10T04:12:09;12.90;99.90
41678;DHT22;27364;49.026;8.712;2023-05-10T04:14:35;12.90;99.90
41678;DHT22;27364;49.026;8.712;2023-05-10T04:17:00;12.90;99.90
41678;DHT22;27364;49.026;8.712;2023-05-10T04:19:29;12.90;99.90
41678;DHT22;27364;49.026;8.712;2023-05-10T04:21:55;12.90;99.90
41678;DHT22;27364;49.026;8.712;2023-05-10T04:24:21;12.90;99.90
41678;DHT22;27364;49.026;8.712;2023-05-10T04:26:46;12.90;99.90
41678;DHT22;27364;49.026;8.712;2023-05-10T04:29:13;12.90;99.90
41678;DHT22;27364;49.026;8.712;2023-05-10T04:31:38;12.90;99.90
41678;DHT22;27364;49.026;8.712;2023-05-10T04:34:04;12.90;99.90
41678;DHT22;27364;49.026;8.712;2023-05-10T04:36:29;12.90;99.90
41678;DHT22;27364;49.026;8.712;2023-05-10T04:38:56;12.90;99.90
41678;DHT22;27364;49.026;8.712;2023-05-10T04:41:21;12.90;99.90
41678;DHT22;27364;49.026;8.712;2023-05-10T04:43:47;12.90;99.90
41678;DHT22;27364;49.026;8.712;2023-05-10T04:46:14;12.90;99.90
41678;DHT22;27364;49.026;8.712;2023-05-10T04:48:42;12.90;99.90
41678;DHT22;27364;49.026;8.712;2023-05-10T04:51:08;12.90;99.90
41678;DHT22;27364;49.026;8.712;2023-05-10T04:53:33;12.90;99.90
41678;DHT22;27364;49.026;8.712;2023-05-10T04:55:59;13.00;99.90
41678;DHT22;27364;49.026;8.712;2023-05-10T04:58:24;13.00;99.90
41678;DHT22;27364;49.026;8.712;2023-05-10T05:00:50;12.90;99.90
41678;DHT22;27364;49.026;8.712;2023-05-10T05:03:15;13.00;99.90
41678;DHT22;27364;49.026;8.712;2023-05-10T05:05:43;13.00;99.90
41678;DHT22;27364;49.026;8.712;2023-05-10T05:08:09;13.00;99.90
41678;DHT22;27364;49.026;8.712;2023-05-10T05:10:34;13.00;99.90
41678;DHT22;27364;49.026;8.712;2023-05-10T05:13:00;13.00;99.90
41678;DHT22;27364;49.026;8.712;2023-05-10T05:15:25;13.00;99.90
41678;DHT22;27364;49.026;8.712;2023-05-10T05:17:51;13.00;99.90
41678;DHT22;27364;49.026;8.712;2023-05-10T05:20:17;13.00;99.90
41678;DHT22;27364;49.026;8.712;2023-05-10T05:22:44;13.00;99.90
41678;DHT22;27364;49.026;8.712;2023-05-10T05:25:10;13.10;99.90
41678;DHT22;27364;49.026;8.712;2023-05-10T05:27:37;13.10;99.90
41678;DHT22;27364;49.026;8.712;2023-05-10T05:30:03;13.10;99.90
41678;DHT22;27364;49.026;8.712;2023-05-10T05:32:29;13.10;99.90
41678;DHT22;27364;49.026;8.712;2023-05-10T05:34:55;13.10;99.90
41678;DHT22;27364;49.026;8.712;2023-05-10T05:37:21;13.10;99.90
41678;DHT22;27364;49.026;8.712;2023-05-10T05:39:48;13.20;99.90
41678;DHT22;27364;49.026;8.712;2023-05-10T05:42:14;13.10;99.90
41678;DHT22;27364;49.026;8.712;2023-05-10T05:44:41;13.20;99.90
41678;DHT22;27364;49.026;8.712;2023-05-10T05:47:07;13.20;99.90
41678;DHT22;27364;49.026;8.712;2023-05-10T05:49:33;13.20;99.90
41678;DHT22;27364;49.026;8.712;2023-05-10T05:51:59;13.10;99.90
41678;DHT22;27364;49.026;8.712;2023-05-10T05:54:26;13.10;99.90
41678;DHT22;27364;49.026;8.712;2023-05-10T05:56:54;13.00;99.90
41678;DHT22;27364;49.026;8.712;2023-05-10T05:59:20;13.10;99.90
41678;DHT22;27364;49.026;8.712;2023-05-10T06:01:46;13.10;99.90
41678;DHT22;27364;49.026;8.712;2023-05-10T06:04:12;13.10;99.90
41678;DHT22;27364;49.026;8.712;2023-05-10T06:06:37;13.10;99.90
41678;DHT22;27364;49.026;8.712;2023-05-10T06:09:03;13.10;99.90
41678;DHT22;27364;49.026;8.712;2023-05-10T06:11:29;13.10;99.90
41678;DHT22;27364;49.026;8.712;2023-05-10T06:13:55;13.10;99.90
41678;DHT22;27364;49.026;8.712;2023-05-10T06:16:21;13.10;99.90
41678;DHT22;27364;49.026;8.712;2023-05-10T06:18:47;13.20;99.90
41678;DHT22;27364;49.026;8.712;2023-05-10T06:21:12;13.20;99.90
41678;DHT22;27364;49.026;8.712;2023-05-10T06:23:38;13.30;99.90
41678;DHT22;27364;49.026;8.712;2023-05-10T06:26:06;13.30;99.90
41678;DHT22;27364;49.026;8.712;2023-05-10T06:28:35;13.30;99.90
41678;DHT22;27364;49.026;8.712;2023-05-10T06:31:06;13.30;99.90
41678;DHT22;27364;49.026;8.712;2023-05-10T06:33:33;13.40;99.90
41678;DHT22;27364;49.026;8.712;2023-05-10T06:35:59;13.40;99.90
41678;DHT22;27364;49.026;8.712;2023-05-10T06:39:00;13.40;99.90
41678;DHT22;27364;49.026;8.712;2023-05-10T06:41:54;13.50;99.90
41678;DHT22;27364;49.026;8.712;2023-05-10T06:44:27;13.40;99.90
41678;DHT22;27364;49.026;8.712;2023-05-10T06:51:20;13.50;99.90
41678;DHT22;27364;49.026;8.712;2023-05-10T06:57:11;13.50;99.90
41678;DHT22;27364;49.026;8.712;2023-05-10T06:59:59;13.50;99.90
41678;DHT22;27364;49.026;8.712;2023-05-10T07:02:53;13.60;99.90
41678;DHT22;27364;49.026;8.712;2023-05-10T07:05:27;13.70;99.90
41678;DHT22;27364;49.026;8.712;2023-05-10T07:08:16;13.70;99.90
41678;DHT22;27364;49.026;8.712;2023-05-10T07:11:10;13.70;99.90
41678;DHT22;27364;49.026;8.712;2023-05-10T07:13:47;13.70;99.90
41678;DHT22;27364;49.026;8.712;2023-05-10T07:16:36;13.80;99.90
41678;DHT22;27364;49.026;8.712;2023-05-10T07:19:25;13.80;99.90
41678;DHT22;27364;49.026;8.712;2023-05-10T07:22:19;13.80;99.90
41678;DHT22;27364;49.026;8.712;2023-05-10T07:24:54;13.80;99.90
41678;DHT22;27364;49.026;8.712;2023-05-10T07:27:34;13.80;99.90
41678;DHT22;27364;49.026;8.712;2023-05-10T07:30:09;13.80;99.90
41678;DHT22;27364;49.026;8.712;2023-05-10T07:32:38;13.90;99.90
41678;DHT22;27364;49.026;8.712;2023-05-10T07:35:32;13.90;99.90
41678;DHT22;27364;49.026;8.712;2023-05-10T07:38:07;13.90;99.90
41678;DHT22;27364;49.026;8.712;2023-05-10T07:40:33;13.90;99.90
41678;DHT22;27364;49.026;8.712;2023-05-10T07:42:59;13.90;99.90
41678;DHT22;27364;49.026;8.712;2023-05-10T07:45:26;13.90;99.90
41678;DHT22;27364;49.026;8.712;2023-05-10T07:47:52;14.00;99.90
41678;DHT22;27364;49.026;8.712;2023-05-10T07:50:18;14.00;99.90
41678;DHT22;27364;49.026;8.712;2023-05-10T07:52:44;13.90;99.90
41678;DHT22;27364;49.026;8.712;2023-05-10T07:55:10;13.80;99.90
41678;DHT22;27364;49.026;8.712;2023-05-10T07:57:37;13.80;99.90
41678;DHT22;27364;49.026;8.712;2023-05-10T08:00:03;13.90;99.90
41678;DHT22;27364;49.026;8.712;2023-05-10T08:02:29;13.90;99.90
41678;DHT22;27364;49.026;8.712;2023-05-10T08:04:54;13.90;99.90
41678;DHT22;27364;49.026;8.712;2023-05-10T08:07:21;13.80;99.90
41678;DHT22;27364;49.026;8.712;2023-05-10T08:09:46;13.90;99.90
41678;DHT22;27364;49.026;8.712;2023-05-10T08:12:12;14.00;99.90
41678;DHT22;27364;49.026;8.712;2023-05-10T08:14:37;14.00;99.90
41678;DHT22;27364;49.026;8.712;2023-05-10T08:17:03;14.10;99.90
41678;DHT22;27364;49.026;8.712;2023-05-10T08:19:29;14.20;99.90
41678;DHT22;27364;49.026;8.712;2023-05-10T08:21:55;14.30;99.90
41678;DHT22;27364;49.026;8.712;2023-05-10T08:24:23;14.40;99.90
41678;DHT22;27364;49.026;8.712;2023-05-10T08:26:51;14.40;99.90
41678;DHT22;27364;49.026;8.712;2023-05-10T08:29:17;14.40;99.90
41678;DHT22;27364;49.026;8.712;2023-05-10T08:31:43;14.50;99.90
41678;DHT22;27364;49.026;8.712;2023-05-10T08:34:08;14.50;99.90
41678;DHT22;27364;49.026;8.712;2023-05-10T08:36:34;14.50;99.90
41678;DHT22;27364;49.026;8.712;2023-05-10T08:39:00;14.50;99.90
41678;DHT22;27364;49.026;8.712;2023-05-10T08:41:30;14.50;99.90
41678;DHT22;27364;49.026;8.712;2023-05-10T08:43:58;14.60;99.90
41678;DHT22;27364;49.026;8.712;2023-05-10T08:46:26;14.50;99.90
41678;DHT22;27364;49.026;8.712;2023-05-10T08:48:52;14.50;99.90
41678;DHT22;27364;49.026;8.712;2023-05-10T08:51:22;14.50;99.90
41678;DHT22;27364;49.026;8.712;2023-05-10T08:53:49;14.50;99.90
41678;DHT22;27364;49.026;8.712;2023-05-10T08:56:15;14.60;99.90
41678;DHT22;27364;49.026;8.712;2023-05-10T08:58:43;14.70;99.90
41678;DHT22;27364;49.026;8.712;2023-05-10T09:01:08;14.80;99.90
41678;DHT22;27364;49.026;8.712;2023-05-10T09:03:35;15.10;99.90
41678;DHT22;27364;49.026;8.712;2023-05-10T09:06:03;15.30;99.90
41678;DHT22;27364;49.026;8.712;2023-05-10T09:08:28;15.40;99.90
41678;DHT22;27364;49.026;8.712;2023-05-10T09:10:56;15.50;99.90
41678;DHT22;27364;49.026;8.712;2023-05-10T09:13:22;15.40;99.90
41678;DHT22;27364;49.026;8.712;2023-05-10T09:15:48;15.30;99.90
41678;DHT22;27364;49.026;8.712;2023-05-10T09:18:14;15.30;99.90
41678;DHT22;27364;49.026;8.712;2023-05-10T09:20:40;15.20;99.90
41678;DHT22;27364;49.026;8.712;2023-05-10T09:23:06;15.10;99.90
41678;DHT22;27364;49.026;8.712;2023-05-10T09:25:31;14.90;99.90
41678;DHT22;27364;49.026;8.712;2023-05-10T09:27:59;14.70;99.90
41678;DHT22;27364;49.026;8.712;2023-05-10T09:32:50;14.60;99.90
41678;DHT22;27364;49.026;8.712;2023-05-10T09:35:18;14.50;99.90
41678;DHT22;27364;49.026;8.712;2023-05-10T09:37:48;14.50;99.90
41678;DHT22;27364;49.026;8.712;2023-05-10T09:40:19;14.50;99.90
41678;DHT22;27364;49.026;8.712;2023-05-10T09:42:56;14.50;99.90
41678;DHT22;27364;49.026;8.712;2023-05-10T09:45:23;14.40;99.90
41678;DHT22;27364;49.026;8.712;2023-05-10T09:47:49;14.50;99.90
41678;DHT22;27364;49.026;8.712;2023-05-10T09:50:15;14.60;99.90
41678;DHT22;27364;49.026;8.712;2023-05-10T09:55:23;14.60;99.90
41678;DHT22;27364;49.026;8.712;2023-05-10T09:57:50;14.60;99.90
41678;DHT22;27364;49.026;8.712;2023-05-10T10:00:23;14.60;99.90
41678;DHT22;27364;49.026;8.712;2023-05-10T10:02:59;14.60;99.90
41678;DHT22;27364;49.026;8.712;2023-05-10T10:05:29;14.60;99.90
41678;DHT22;27364;49.026;8.712;2023-05-10T10:07:56;14.50;99.90
41678;DHT22;27364;49.026;8.712;2023-05-10T10:10:22;14.50;99.90
41678;DHT22;27364;49.026;8.712;2023-05-10T10:12:48;14.30;99.90
41678;DHT22;27364;49.026;8.712;2023-05-10T10:15:14;14.20;99.90
41678;DHT22;27364;49.026;8.712;2023-05-10T10:17:40;14.10;99.90
41678;DHT22;27364;49.026;8.712;2023-05-10T10:20:08;13.90;99.90
41678;DHT22;27364;49.026;8.712;2023-05-10T10:22:34;13.90;99.90
41678;DHT22;27364;49.026;8.712;2023-05-10T10:24:59;13.80;99.90
41678;DHT22;27364;49.026;8.712;2023-05-10T10:27:42;13.80;99.90
41678;DHT22;27364;49.026;8.712;2023-05-10T10:30:30;13.70;99.90
41678;DHT22;27364;49.026;8.712;2023-05-10T10:35:32;13.80;99.90
41678;DHT22;27364;49.026;8.712;2023-05-10T10:37:58;13.90;99.90
41678;DHT22;27364;49.026;8.712;2023-05-10T10:40:28;14.00;99.90
41678;DHT22;27364;49.026;8.712;2023-05-10T10:42:55;14.10;99.90
41678;DHT22;27364;49.026;8.712;2023-05-10T10:45:21;14.10;99.90
41678;DHT22;27364;49.026;8.712;2023-05-10T10:47:47;14.20;99.90
41678;DHT22;27364;49.026;8.712;2023-05-10T10:50:13;14.30;99.90
41678;DHT22;27364;49.026;8.712;2023-05-10T10:52:46;14.40;99.90
41678;DHT22;27364;49.026;8.712;2023-05-10T10:55:17;14.60;99.90
41678;DHT22;27364;49.026;8.712;2023-05-10T10:57:49;14.60;99.90
41678;DHT22;27364;49.026;8.712;2023-05-10T11:00:29;14.70;99.90
41678;DHT22;27364;49.026;8.712;2023-05-10T11:02:57;14.70;99.90
41678;DHT22;27364;49.026;8.712;2023-05-10T11:08:00;14.50;99.90
41678;DHT22;27364;49.026;8.712;2023-05-10T11:10:26;14.50;99.90
41678;DHT22;27364;49.026;8.712;2023-05-10T11:13:06;14.50;99.90
41678;DHT22;27364;49.026;8.712;2023-05-10T11:15:33;14.50;99.90
41678;DHT22;27364;49.026;8.712;2023-05-10T11:17:59;14.60;99.90
41678;DHT22;27364;49.026;8.712;2023-05-10T11:20:38;14.70;99.90
41678;DHT22;27364;49.026;8.712;2023-05-10T11:23:12;15.00;99.90
41678;DHT22;27364;49.026;8.712;2023-05-10T11:25:45;15.20;99.90
41678;DHT22;27364;49.026;8.712;2023-05-10T11:28:11;15.50;99.90
41678;DHT22;27364;49.026;8.712;2023-05-10T11:30:41;15.70;99.90
41678;DHT22;27364;49.026;8.712;2023-05-10T11:33:07;15.80;99.90
41678;DHT22;27364;49.026;8.712;2023-05-10T11:35:40;15.70;99.90
41678;DHT22;27364;49.026;8.712;2023-05-10T11:38:07;15.80;99.90
41678;DHT22;27364;49.026;8.712;2023-05-10T11:40:33;15.80;99.90
41678;DHT22;27364;49.026;8.712;2023-05-10T11:42:59;15.90;99.90
41678;DHT22;27364;49.026;8.712;2023-05-10T11:45:25;16.10;99.90
41678;DHT22;27364;49.026;8.712;2023-05-10T11:47:51;16.10;99.90
41678;DHT22;27364;49.026;8.712;2023-05-10T11:50:17;16.00;99.90
41678;DHT22;27364;49.026;8.712;2023-05-10T11:52:43;15.90;99.90
41678;DHT22;27364;49.026;8.712;2023-05-10T11:55:08;15.60;99.90
41678;DHT22;27364;49.026;8.712;2023-05-10T11:57:35;15.50;99.90
41678;DHT22;27364;49.026;8.712;2023-05-10T12:00:01;15.50;99.90
41678;DHT22;27364;49.026;8.712;2023-05-10T12:02:29;15.40;99.90
41678;DHT22;27364;49.026;8.712;2023-05-10T12:04:55;15.40;99.90
41678;DHT22;27364;49.026;8.712;2023-05-10T12:07:21;15.40;99.90
41678;DHT22;27364;49.026;8.712;2023-05-10T12:10:09;15.60;99.90
41678;DHT22;27364;49.026;8.712;2023-05-10T12:12:45;15.80;99.90
41678;DHT22;27364;49.026;8.712;2023-05-10T12:15:23;15.80;99.90
41678;DHT22;27364;49.026;8.712;2023-05-10T12:17:50;16.00;99.90
41678;DHT22;27364;49.026;8.712;2023-05-10T12:20:20;16.10;99.90
41678;DHT22;27364;49.026;8.712;2023-05-10T12:22:57;16.20;99.90
41678;DHT22;27364;49.026;8.712;2023-05-10T12:25:24;16.30;99.90
41678;DHT22;27364;49.026;8.712;2023-05-10T12:27:55;16.30;99.90
41678;DHT22;27364;49.026;8.712;2023-05-10T12:30:26;16.20;99.90
41678;DHT22;27364;49.026;8.712;2023-05-10T12:32:52;16.30;99.90
41678;DHT22;27364;49.026;8.712;2023-05-10T12:35:18;16.20;99.90
41678;DHT22;27364;49.026;8.712;2023-05-10T12:37:50;16.20;99.90
41678;DHT22;27364;49.026;8.712;2023-05-10T12:40:15;16.20;99.90
41678;DHT22;27364;49.026;8.712;2023-05-10T12:42:41;16.30;99.90
41678;DHT22;27364;49.026;8.712;2023-05-10T12:45:07;16.30;99.90
41678;DHT22;27364;49.026;8.712;2023-05-10T12:47:33;16.50;99.90
41678;DHT22;27364;49.026;8.712;2023-05-10T12:50:01;16.60;99.90
41678;DHT22;27364;49.026;8.712;2023-05-10T12:52:27;16.40;99.90
41678;DHT22;27364;49.026;8.712;2023-05-10T12:54:53;16.50;99.90
41678;DHT22;27364;49.026;8.712;2023-05-10T12:57:22;16.50;99.90
41678;DHT22;27364;49.026;8.712;2023-05-10T12:59:47;16.50;99.90
41678;DHT22;27364;49.026;8.712;2023-05-10T13:02:13;16.60;99.90
41678;DHT22;27364;49.026;8.712;2023-05-10T13:04:40;16.80;99.90
41678;DHT22;27364;49.026;8.712;2023-05-10T13:07:06;16.90;99.90
41678;DHT22;27364;49.026;8.712;2023-05-10T13:09:32;17.00;99.90
41678;DHT22;27364;49.026;8.712;2023-05-10T13:11:57;17.20;99.90
41678;DHT22;27364;49.026;8.712;2023-05-10T13:14:23;17.10;99.90
41678;DHT22;27364;49.026;8.712;2023-05-10T13:16:49;17.30;99.90
41678;DHT22;27364;49.026;8.712;2023-05-10T13:19:16;17.50;99.90
41678;DHT22;27364;49.026;8.712;2023-05-10T13:21:42;17.60;99.90
41678;DHT22;27364;49.026;8.712;2023-05-10T13:24:10;17.50;99.90
41678;DHT22;27364;49.026;8.712;2023-05-10T13:26:36;17.50;99.90
41678;DHT22;27364;49.026;8.712;2023-05-10T13:29:02;17.40;99.90
41678;DHT22;27364;49.026;8.712;2023-05-10T13:31:28;17.50;99.90
41678;DHT22;27364;49.026;8.712;2023-05-10T13:33:54;17.60;99.90
41678;DHT22;27364;49.026;8.712;2023-05-10T13:36:20;17.60;99.90
41678;DHT22;27364;49.026;8.712;2023-05-10T13:38:46;17.50;99.90
41678;DHT22;27364;49.026;8.712;2023-05-10T13:41:11;17.50;99.90
41678;DHT22;27364;49.026;8.712;2023-05-10T13:43:37;17.40;99.90
41678;DHT22;27364;49.026;8.712;2023-05-10T13:46:02;17.40;99.90
41678;DHT22;27364;49.026;8.712;2023-05-10T13:48:28;17.50;99.90
41678;DHT22;27364;49.026;8.712;2023-05-10T13:50:54;17.40;99.90
41678;DHT22;27364;49.026;8.712;2023-05-10T13:53:19;17.30;99.90
41678;DHT22;27364;49.026;8.712;2023-05-10T13:55:45;17.30;99.90
41678;DHT22;27364;49.026;8.712;2023-05-10T13:58:10;17.40;99.90
41678;DHT22;27364;49.026;8.712;2023-05-10T14:00:36;17.50;99.90
41678;DHT22;27364;49.026;8.712;2023-05-10T14:03:01;17.50;99.90
41678;DHT22;27364;49.026;8.712;2023-05-10T14:05:27;17.40;99.90
41678;DHT22;27364;49.026;8.712;2023-05-10T14:07:53;17.40;99.90
41678;DHT22;27364;49.026;8.712;2023-05-10T14:10:19;17.40;99.90
41678;DHT22;27364;49.026;8.712;2023-05-10T14:12:44;17.30;99.90
41678;DHT22;27364;49.026;8.712;2023-05-10T14:15:10;17.20;99.90
41678;DHT22;27364;49.026;8.712;2023-05-10T14:17:36;17.30;99.90
41678;DHT22;27364;49.026;8.712;2023-05-10T14:20:02;17.30;99.90
41678;DHT22;27364;49.026;8.712;2023-05-10T14:22:29;17.30;99.90
41678;DHT22;27364;49.026;8.712;2023-05-10T14:24:54;17.20;99.80
41678;DHT22;27364;49.026;8.712;2023-05-10T14:27:20;17.30;99.90
41678;DHT22;27364;49.026;8.712;2023-05-10T14:29:47;17.20;99.70
41678;DHT22;27364;49.026;8.712;2023-05-10T14:32:12;17.10;99.50
41678;DHT22;27364;49.026;8.712;2023-05-10T14:34:38;17.00;99.70
41678;DHT22;27364;49.026;8.712;2023-05-10T14:37:04;17.00;99.90
41678;DHT22;27364;49.026;8.712;2023-05-10T14:39:30;16.90;99.90
41678;DHT22;27364;49.026;8.712;2023-05-10T14:41:56;16.90;99.90
41678;DHT22;27364;49.026;8.712;2023-05-10T14:44:21;16.80;99.90
41678;DHT22;27364;49.026;8.712;2023-05-10T14:46:47;16.90;99.90
41678;DHT22;27364;49.026;8.712;2023-05-10T14:49:13;17.00;99.90
41678;DHT22;27364;49.026;8.712;2023-05-10T14:51:39;16.90;99.90
41678;DHT22;27364;49.026;8.712;2023-05-10T14:54:05;16.90;99.90
41678;DHT22;27364;49.026;8.712;2023-05-10T14:56:31;16.80;99.90
41678;DHT22;27364;49.026;8.712;2023-05-10T14:58:56;16.70;99.90
41678;DHT22;27364;49.026;8.712;2023-05-10T15:01:22;16.60;99.90
41678;DHT22;27364;49.026;8.712;2023-05-10T15:03:47;16.60;99.90
41678;DHT22;27364;49.026;8.712;2023-05-10T15:06:14;16.60;99.90
41678;DHT22;27364;49.026;8.712;2023-05-10T15:08:40;16.60;99.90
41678;DHT22;27364;49.026;8.712;2023-05-10T15:11:05;16.70;99.90
41678;DHT22;27364;49.026;8.712;2023-05-10T15:13:31;16.70;99.90
41678;DHT22;27364;49.026;8.712;2023-05-10T15:15:56;16.90;99.90
41678;DHT22;27364;49.026;8.712;2023-05-10T15:18:22;16.90;99.90
41678;DHT22;27364;49.026;8.712;2023-05-10T15:20:47;16.90;99.90
41678;DHT22;27364;49.026;8.712;2023-05-10T15:23:13;16.90;99.90
41678;DHT22;27364;49.026;8.712;2023-05-10T15:25:38;16.90;99.90
41678;DHT22;27364;49.026;8.712;2023-05-10T15:28:04;16.90;99.90
41678;DHT22;27364;49.026;8.712;2023-05-10T15:30:30;16.90;99.90
41678;DHT22;27364;49.026;8.712;2023-05-10T15:32:56;16.90;99.90
41678;DHT22;27364;49.026;8.712;2023-05-10T15:35:21;16.90;99.90
41678;DHT22;27364;49.026;8.712;2023-05-10T15:37:48;16.90;99.90
41678;DHT22;27364;49.026;8.712;2023-05-10T15:40:14;16.90;99.90
41678;DHT22;27364;49.026;8.712;2023-05-10T15:42:40;16.90;99.90
41678;DHT22;27364;49.026;8.712;2023-05-10T15:45:05;16.90;99.90
41678;DHT22;27364;49.026;8.712;2023-05-10T15:47:31;16.90;99.90
41678;DHT22;27364;49.026;8.712;2023-05-10T15:49:57;16.90;99.90
41678;DHT22;27364;49.026;8.712;2023-05-10T15:52:22;16.80;99.90
41678;DHT22;27364;49.026;8.712;2023-05-10T15:54:49;16.90;99.90
41678;DHT22;27364;49.026;8.712;2023-05-10T15:57:14;16.90;99.90
41678;DHT22;27364;49.026;8.712;2023-05-10T15:59:40;16.80;99.90
41678;DHT22;27364;49.026;8.712;2023-05-10T16:02:06;16.70;99.90
41678;DHT22;27364;49.026;8.712;2023-05-10T16:04:32;16.70;99.90
41678;DHT22;27364;49.026;8.712;2023-05-10T16:06:58;16.50;99.90